Terminal Aerodrome Forecast
Issued by NWS

Home | Current Version | Previous Version | Text Only | Print | Product List | Glossary On
Versions: 1 2 3 4 5 6 7 8 9 10 11 12 13 14 15 16
894
FTUS43 KIWX 291739
TAFSBN
TAF
KSBN 291739Z 2918/3018 07005KT P6SM VCTS BKN025CB
      TEMPO 2918/2922 4SM -TSRA
     FM300400 08006KT P6SM BKN015
     FM300900 08005KT 2SM BR BKN010
     FM301500 08006KT P6SM BKN025=

USA.gov is the U.S. government's official web portal to all federal, state and local government web resources and services.